sensor_id;sensor_type;location;lat;lon;timestamp;P1;durP1;ratioP1;P2;durP2;ratioP2
20203;SDS011;10261;49.010;12.034;2023-02-28T00:00:08;5.30;;;2.65;;
20203;SDS011;10261;49.010;12.034;2023-02-28T00:01:13;5.05;;;2.63;;
20203;SDS011;10261;49.010;12.034;2023-02-28T00:02:15;9.55;;;2.40;;
20203;SDS011;10261;49.010;12.034;2023-02-28T00:03:19;3.40;;;2.67;;
20203;SDS011;10261;49.010;12.034;2023-02-28T00:04:22;6.70;;;2.60;;
20203;SDS011;10261;49.010;12.034;2023-02-28T00:05:26;4.38;;;2.90;;
20203;SDS011;10261;49.010;12.034;2023-02-28T00:06:28;6.40;;;2.70;;
20203;SDS011;10261;49.010;12.034;2023-02-28T00:07:32;3.42;;;2.15;;
20203;SDS011;10261;49.010;12.034;2023-02-28T00:08:34;3.00;;;2.08;;
20203;SDS011;10261;49.010;12.034;2023-02-28T00:09:37;2.75;;;1.85;;
20203;SDS011;10261;49.010;12.034;2023-02-28T00:10:39;2.72;;;2.15;;
20203;SDS011;10261;49.010;12.034;2023-02-28T00:11:42;2.72;;;2.15;;
20203;SDS011;10261;49.010;12.034;2023-02-28T00:12:44;6.70;;;2.83;;
20203;SDS011;10261;49.010;12.034;2023-02-28T00:13:47;4.10;;;2.50;;
20203;SDS011;10261;49.010;12.034;2023-02-28T00:14:50;2.83;;;2.40;;
20203;SDS011;10261;49.010;12.034;2023-02-28T00:16:00;3.25;;;2.40;;
20203;SDS011;10261;49.010;12.034;2023-02-28T00:17:03;5.00;;;3.03;;
20203;SDS011;10261;49.010;12.034;2023-02-28T00:18:05;5.10;;;2.63;;
20203;SDS011;10261;49.010;12.034;2023-02-28T00:19:08;2.65;;;2.45;;
20203;SDS011;10261;49.010;12.034;2023-02-28T00:20:12;4.60;;;3.30;;
20203;SDS011;10261;49.010;12.034;2023-02-28T00:21:17;5.63;;;2.70;;
20203;SDS011;10261;49.010;12.034;2023-02-28T00:22:20;3.85;;;2.72;;
20203;SDS011;10261;49.010;12.034;2023-02-28T00:23:23;5.28;;;2.60;;
20203;SDS011;10261;49.010;12.034;2023-02-28T00:24:25;5.38;;;2.95;;
20203;SDS011;10261;49.010;12.034;2023-02-28T00:25:28;4.68;;;3.90;;
20203;SDS011;10261;49.010;12.034;2023-02-28T00:26:30;3.85;;;2.25;;
20203;SDS011;10261;49.010;12.034;2023-02-28T00:27:33;3.85;;;2.65;;
20203;SDS011;10261;49.010;12.034;2023-02-28T00:28:35;2.45;;;2.10;;
20203;SDS011;10261;49.010;12.034;2023-02-28T00:29:38;3.58;;;2.10;;
20203;SDS011;10261;49.010;12.034;2023-02-28T00:30:41;2.85;;;2.42;;
20203;SDS011;10261;49.010;12.034;2023-02-28T00:31:44;3.90;;;2.63;;
20203;SDS011;10261;49.010;12.034;2023-02-28T00:32:46;3.28;;;2.67;;
20203;SDS011;10261;49.010;12.034;2023-02-28T00:33:50;5.15;;;2.75;;
20203;SDS011;10261;49.010;12.034;2023-02-28T00:34:52;4.80;;;2.97;;
20203;SDS011;10261;49.010;12.034;2023-02-28T00:36:04;3.40;;;2.30;;
20203;SDS011;10261;49.010;12.034;2023-02-28T00:37:08;3.17;;;2.20;;
20203;SDS011;10261;49.010;12.034;2023-02-28T00:38:13;2.97;;;2.20;;
20203;SDS011;10261;49.010;12.034;2023-02-28T00:39:16;9.48;;;2.55;;
20203;SDS011;10261;49.010;12.034;2023-02-28T00:40:18;3.00;;;2.35;;
20203;SDS011;10261;49.010;12.034;2023-02-28T00:41:21;3.40;;;2.60;;
20203;SDS011;10261;49.010;12.034;2023-02-28T00:42:24;5.47;;;2.60;;
20203;SDS011;10261;49.010;12.034;2023-02-28T00:43:27;5.20;;;2.97;;
20203;SDS011;10261;49.010;12.034;2023-02-28T00:44:29;3.25;;;2.40;;
20203;SDS011;10261;49.010;12.034;2023-02-28T00:45:32;3.38;;;2.35;;
20203;SDS011;10261;49.010;12.034;2023-02-28T00:46:34;11.13;;;2.80;;
20203;SDS011;10261;49.010;12.034;2023-02-28T00:47:37;3.22;;;2.58;;
20203;SDS011;10261;49.010;12.034;2023-02-28T00:48:39;2.58;;;2.30;;
20203;SDS011;10261;49.010;12.034;2023-02-28T00:49:42;5.30;;;3.05;;
20203;SDS011;10261;49.010;12.034;2023-02-28T00:50:45;3.50;;;2.78;;
20203;SDS011;10261;49.010;12.034;2023-02-28T00:51:52;4.05;;;2.50;;
20203;SDS011;10261;49.010;12.034;2023-02-28T00:52:54;4.13;;;2.70;;
20203;SDS011;10261;49.010;12.034;2023-02-28T00:53:57;3.50;;;2.50;;
20203;SDS011;10261;49.010;12.034;2023-02-28T00:54:59;3.10;;;2.35;;
20203;SDS011;10261;49.010;12.034;2023-02-28T00:56:02;3.47;;;2.83;;
20203;SDS011;10261;49.010;12.034;2023-02-28T00:57:05;3.60;;;2.25;;
20203;SDS011;10261;49.010;12.034;2023-02-28T00:58:08;2.90;;;2.60;;
20203;SDS011;10261;49.010;12.034;2023-02-28T00:59:10;4.10;;;2.53;;
20203;SDS011;10261;49.010;12.034;2023-02-28T01:00:13;5.32;;;3.03;;
20203;SDS011;10261;49.010;12.034;2023-02-28T01:01:16;3.53;;;2.70;;
20203;SDS011;10261;49.010;12.034;2023-02-28T01:02:19;3.63;;;2.42;;
20203;SDS011;10261;49.010;12.034;2023-02-28T01:03:21;3.67;;;2.85;;
20203;SDS011;10261;49.010;12.034;2023-02-28T01:04:24;5.03;;;3.30;;
20203;SDS011;10261;49.010;12.034;2023-02-28T01:05:26;4.78;;;2.90;;
20203;SDS011;10261;49.010;12.034;2023-02-28T01:06:29;3.47;;;2.47;;
20203;SDS011;10261;49.010;12.034;2023-02-28T01:07:33;4.95;;;3.25;;
20203;SDS011;10261;49.010;12.034;2023-02-28T01:08:35;2.50;;;2.30;;
20203;SDS011;10261;49.010;12.034;2023-02-28T01:09:37;2.92;;;2.65;;
20203;SDS011;10261;49.010;12.034;2023-02-28T01:10:40;3.45;;;3.00;;
20203;SDS011;10261;49.010;12.034;2023-02-28T01:11:43;4.07;;;2.83;;
20203;SDS011;10261;49.010;12.034;2023-02-28T01:12:46;3.35;;;2.50;;
20203;SDS011;10261;49.010;12.034;2023-02-28T01:13:48;3.15;;;2.83;;
20203;SDS011;10261;49.010;12.034;2023-02-28T01:14:50;3.13;;;2.60;;
20203;SDS011;10261;49.010;12.034;2023-02-28T01:15:54;5.13;;;2.78;;
20203;SDS011;10261;49.010;12.034;2023-02-28T01:16:57;5.65;;;3.17;;
20203;SDS011;10261;49.010;12.034;2023-02-28T01:18:00;4.00;;;2.30;;
20203;SDS011;10261;49.010;12.034;2023-02-28T01:19:02;4.32;;;3.00;;
20203;SDS011;10261;49.010;12.034;2023-02-28T01:20:05;3.97;;;2.20;;
20203;SDS011;10261;49.010;12.034;2023-02-28T01:21:09;9.77;;;3.20;;
20203;SDS011;10261;49.010;12.034;2023-02-28T01:22:13;4.85;;;3.58;;
20203;SDS011;10261;49.010;12.034;2023-02-28T01:23:18;5.55;;;3.40;;
20203;SDS011;10261;49.010;12.034;2023-02-28T01:24:20;4.15;;;2.63;;
20203;SDS011;10261;49.010;12.034;2023-02-28T01:25:23;3.65;;;2.75;;
20203;SDS011;10261;49.010;12.034;2023-02-28T01:26:25;3.67;;;2.65;;
20203;SDS011;10261;49.010;12.034;2023-02-28T01:27:28;3.80;;;3.35;;
20203;SDS011;10261;49.010;12.034;2023-02-28T01:28:30;3.17;;;2.35;;
20203;SDS011;10261;49.010;12.034;2023-02-28T01:29:33;3.15;;;2.53;;
20203;SDS011;10261;49.010;12.034;2023-02-28T01:30:35;5.10;;;2.53;;
20203;SDS011;10261;49.010;12.034;2023-02-28T01:31:38;4.13;;;3.00;;
20203;SDS011;10261;49.010;12.034;2023-02-28T01:32:40;2.90;;;2.40;;
20203;SDS011;10261;49.010;12.034;2023-02-28T01:33:43;4.38;;;3.13;;
20203;SDS011;10261;49.010;12.034;2023-02-28T01:34:45;6.47;;;2.83;;
20203;SDS011;10261;49.010;12.034;2023-02-28T01:35:48;3.70;;;3.22;;
20203;SDS011;10261;49.010;12.034;2023-02-28T01:36:50;3.10;;;2.83;;
20203;SDS011;10261;49.010;12.034;2023-02-28T01:37:53;5.30;;;2.90;;
20203;SDS011;10261;49.010;12.034;2023-02-28T01:38:56;5.18;;;3.00;;
20203;SDS011;10261;49.010;12.034;2023-02-28T01:39:59;4.35;;;2.60;;
20203;SDS011;10261;49.010;12.034;2023-02-28T01:41:01;2.90;;;2.65;;
20203;SDS011;10261;49.010;12.034;2023-02-28T01:42:05;3.75;;;2.80;;
20203;SDS011;10261;49.010;12.034;2023-02-28T01:43:09;5.15;;;2.75;;
20203;SDS011;10261;49.010;12.034;2023-02-28T01:46:03;3.53;;;2.67;;
20203;SDS011;10261;49.010;12.034;2023-02-28T01:47:05;4.90;;;3.28;;
20203;SDS011;10261;49.010;12.034;2023-02-28T01:48:08;2.90;;;2.42;;
20203;SDS011;10261;49.010;12.034;2023-02-28T01:49:11;4.05;;;2.50;;
20203;SDS011;10261;49.010;12.034;2023-02-28T01:50:19;3.55;;;3.00;;
20203;SDS011;10261;49.010;12.034;2023-02-28T01:51:26;4.68;;;2.83;;
20203;SDS011;10261;49.010;12.034;2023-02-28T01:52:33;3.90;;;3.10;;
20203;SDS011;10261;49.010;12.034;2023-02-28T01:53:37;4.13;;;2.80;;
20203;SDS011;10261;49.010;12.034;2023-02-28T01:54:46;4.38;;;2.75;;
20203;SDS011;10261;49.010;12.034;2023-02-28T01:55:52;4.47;;;2.95;;
20203;SDS011;10261;49.010;12.034;2023-02-28T01:56:56;4.20;;;2.90;;
20203;SDS011;10261;49.010;12.034;2023-02-28T01:58:04;3.88;;;2.50;;
20203;SDS011;10261;49.010;12.034;2023-02-28T01:59:07;6.80;;;3.40;;
20203;SDS011;10261;49.010;12.034;2023-02-28T02:00:12;4.10;;;2.60;;
20203;SDS011;10261;49.010;12.034;2023-02-28T02:01:16;3.20;;;2.70;;
20203;SDS011;10261;49.010;12.034;2023-02-28T02:02:22;4.13;;;2.90;;
20203;SDS011;10261;49.010;12.034;2023-02-28T02:03:25;3.88;;;2.67;;
20203;SDS011;10261;49.010;12.034;2023-02-28T02:04:32;4.00;;;3.15;;
20203;SDS011;10261;49.010;12.034;2023-02-28T02:05:40;2.97;;;2.60;;
20203;SDS011;10261;49.010;12.034;2023-02-28T02:06:49;6.43;;;3.50;;
20203;SDS011;10261;49.010;12.034;2023-02-28T02:07:54;4.75;;;3.30;;
20203;SDS011;10261;49.010;12.034;2023-02-28T02:08:58;3.70;;;2.65;;
20203;SDS011;10261;49.010;12.034;2023-02-28T02:10:04;4.90;;;3.20;;
20203;SDS011;10261;49.010;12.034;2023-02-28T02:11:09;6.18;;;3.00;;
20203;SDS011;10261;49.010;12.034;2023-02-28T02:12:16;3.60;;;2.90;;
20203;SDS011;10261;49.010;12.034;2023-02-28T02:13:33;4.85;;;3.03;;
20203;SDS011;10261;49.010;12.034;2023-02-28T02:14:48;4.32;;;2.70;;
20203;SDS011;10261;49.010;12.034;2023-02-28T02:16:04;6.38;;;3.33;;
20203;SDS011;10261;49.010;12.034;2023-02-28T02:17:20;4.25;;;2.80;;
20203;SDS011;10261;49.010;12.034;2023-02-28T02:18:30;5.57;;;2.72;;
20203;SDS011;10261;49.010;12.034;2023-02-28T02:22:59;3.92;;;2.95;;
20203;SDS011;10261;49.010;12.034;2023-02-28T02:24:23;7.10;;;3.80;;
20203;SDS011;10261;49.010;12.034;2023-02-28T02:25:50;3.35;;;2.90;;
20203;SDS011;10261;49.010;12.034;2023-02-28T02:27:03;3.83;;;2.90;;
20203;SDS011;10261;49.010;12.034;2023-02-28T02:28:22;4.70;;;2.83;;
20203;SDS011;10261;49.010;12.034;2023-02-28T02:31:15;7.68;;;3.22;;
20203;SDS011;10261;49.010;12.034;2023-02-28T02:32:44;3.85;;;3.35;;
20203;SDS011;10261;49.010;12.034;2023-02-28T02:34:17;5.35;;;2.92;;
20203;SDS011;10261;49.010;12.034;2023-02-28T02:35:31;5.35;;;3.38;;
20203;SDS011;10261;49.010;12.034;2023-02-28T02:36:41;4.15;;;2.90;;
20203;SDS011;10261;49.010;12.034;2023-02-28T02:37:51;3.47;;;2.65;;
20203;SDS011;10261;49.010;12.034;2023-02-28T02:39:01;5.15;;;3.30;;
20203;SDS011;10261;49.010;12.034;2023-02-28T02:40:09;4.03;;;3.30;;
20203;SDS011;10261;49.010;12.034;2023-02-28T02:41:18;4.50;;;2.58;;
20203;SDS011;10261;49.010;12.034;2023-02-28T02:42:27;2.83;;;2.60;;
20203;SDS011;10261;49.010;12.034;2023-02-28T02:43:36;3.60;;;3.30;;
20203;SDS011;10261;49.010;12.034;2023-02-28T02:44:46;5.47;;;3.83;;
20203;SDS011;10261;49.010;12.034;2023-02-28T02:45:55;4.53;;;2.80;;
20203;SDS011;10261;49.010;12.034;2023-02-28T02:47:02;5.43;;;2.95;;
20203;SDS011;10261;49.010;12.034;2023-02-28T02:48:10;4.20;;;3.38;;
20203;SDS011;10261;49.010;12.034;2023-02-28T02:49:19;3.00;;;2.70;;
20203;SDS011;10261;49.010;12.034;2023-02-28T02:50:24;3.38;;;3.08;;
20203;SDS011;10261;49.010;12.034;2023-02-28T02:51:32;4.22;;;2.65;;
20203;SDS011;10261;49.010;12.034;2023-02-28T02:52:36;5.20;;;2.90;;
20203;SDS011;10261;49.010;12.034;2023-02-28T02:53:44;3.30;;;3.00;;
20203;SDS011;10261;49.010;12.034;2023-02-28T02:54:50;4.97;;;3.45;;
20203;SDS011;10261;49.010;12.034;2023-02-28T02:55:56;4.65;;;3.05;;
20203;SDS011;10261;49.010;12.034;2023-02-28T02:57:01;3.85;;;3.10;;
20203;SDS011;10261;49.010;12.034;2023-02-28T02:58:10;4.80;;;3.13;;
20203;SDS011;10261;49.010;12.034;2023-02-28T02:59:16;3.42;;;2.95;;
20203;SDS011;10261;49.010;12.034;2023-02-28T03:00:24;4.00;;;2.83;;
20203;SDS011;10261;49.010;12.034;2023-02-28T03:01:31;6.85;;;3.65;;
20203;SDS011;10261;49.010;12.034;2023-02-28T03:02:36;5.93;;;3.33;;
20203;SDS011;10261;49.010;12.034;2023-02-28T03:03:39;4.78;;;3.47;;
20203;SDS011;10261;49.010;12.034;2023-02-28T03:04:45;4.68;;;3.25;;
20203;SDS011;10261;49.010;12.034;2023-02-28T03:05:51;4.72;;;2.80;;
20203;SDS011;10261;49.010;12.034;2023-02-28T03:06:54;3.88;;;3.22;;
20203;SDS011;10261;49.010;12.034;2023-02-28T03:07:56;5.03;;;3.40;;
20203;SDS011;10261;49.010;12.034;2023-02-28T03:08:59;5.13;;;3.63;;
20203;SDS011;10261;49.010;12.034;2023-02-28T03:10:01;4.85;;;3.28;;
20203;SDS011;10261;49.010;12.034;2023-02-28T03:11:05;4.00;;;3.05;;
20203;SDS011;10261;49.010;12.034;2023-02-28T03:12:15;4.47;;;3.60;;
20203;SDS011;10261;49.010;12.034;2023-02-28T03:13:24;5.70;;;3.35;;
20203;SDS011;10261;49.010;12.034;2023-02-28T03:14:40;3.80;;;3.20;;
20203;SDS011;10261;49.010;12.034;2023-02-28T03:15:56;4.55;;;3.58;;
20203;SDS011;10261;49.010;12.034;2023-02-28T03:17:14;7.65;;;3.30;;
20203;SDS011;10261;49.010;12.034;2023-02-28T03:18:36;4.05;;;2.97;;
20203;SDS011;10261;49.010;12.034;2023-02-28T03:19:54;6.40;;;3.70;;
20203;SDS011;10261;49.010;12.034;2023-02-28T03:21:03;6.20;;;3.30;;
20203;SDS011;10261;49.010;12.034;2023-02-28T03:22:14;5.93;;;3.00;;
20203;SDS011;10261;49.010;12.034;2023-02-28T03:23:23;4.72;;;3.15;;
20203;SDS011;10261;49.010;12.034;2023-02-28T03:24:32;4.60;;;3.22;;
20203;SDS011;10261;49.010;12.034;2023-02-28T03:25:45;3.78;;;3.03;;
20203;SDS011;10261;49.010;12.034;2023-02-28T03:26:57;5.10;;;3.15;;
20203;SDS011;10261;49.010;12.034;2023-02-28T03:28:07;3.40;;;3.08;;
20203;SDS011;10261;49.010;12.034;2023-02-28T03:29:15;6.15;;;3.83;;
20203;SDS011;10261;49.010;12.034;2023-02-28T03:30:24;9.65;;;3.50;;
20203;SDS011;10261;49.010;12.034;2023-02-28T03:31:32;4.03;;;3.55;;
20203;SDS011;10261;49.010;12.034;2023-02-28T03:32:40;3.67;;;2.70;;
20203;SDS011;10261;49.010;12.034;2023-02-28T03:33:49;4.50;;;3.60;;
20203;SDS011;10261;49.010;12.034;2023-02-28T03:34:59;5.65;;;3.08;;
20203;SDS011;10261;49.010;12.034;2023-02-28T03:36:09;6.60;;;3.40;;
20203;SDS011;10261;49.010;12.034;2023-02-28T03:37:14;5.47;;;3.00;;
20203;SDS011;10261;49.010;12.034;2023-02-28T03:38:22;4.63;;;3.25;;
20203;SDS011;10261;49.010;12.034;2023-02-28T03:39:30;3.25;;;2.95;;
20203;SDS011;10261;49.010;12.034;2023-02-28T03:40:38;4.45;;;3.28;;
20203;SDS011;10261;49.010;12.034;2023-02-28T03:41:43;3.42;;;3.05;;
20203;SDS011;10261;49.010;12.034;2023-02-28T03:42:51;6.38;;;3.47;;
20203;SDS011;10261;49.010;12.034;2023-02-28T03:44:05;3.95;;;3.05;;
20203;SDS011;10261;49.010;12.034;2023-02-28T03:45:13;5.22;;;3.30;;
20203;SDS011;10261;49.010;12.034;2023-02-28T03:46:18;7.10;;;3.80;;
20203;SDS011;10261;49.010;12.034;2023-02-28T03:47:27;6.53;;;3.17;;
20203;SDS011;10261;49.010;12.034;2023-02-28T03:48:31;5.93;;;3.75;;
20203;SDS011;10261;49.010;12.034;2023-02-28T03:49:41;4.65;;;3.58;;
20203;SDS011;10261;49.010;12.034;2023-02-28T03:50:48;4.85;;;3.25;;
20203;SDS011;10261;49.010;12.034;2023-02-28T03:51:56;4.63;;;3.60;;
20203;SDS011;10261;49.010;12.034;2023-02-28T03:53:03;4.00;;;3.15;;
20203;SDS011;10261;49.010;12.034;2023-02-28T03:54:13;4.78;;;3.75;;
20203;SDS011;10261;49.010;12.034;2023-02-28T03:55:19;4.15;;;3.70;;
20203;SDS011;10261;49.010;12.034;2023-02-28T03:56:24;4.60;;;3.67;;
20203;SDS011;10261;49.010;12.034;2023-02-28T03:57:33;4.97;;;3.63;;
20203;SDS011;10261;49.010;12.034;2023-02-28T03:58:41;4.80;;;3.40;;
20203;SDS011;10261;49.010;12.034;2023-02-28T03:59:49;4.90;;;3.40;;
20203;SDS011;10261;49.010;12.034;2023-02-28T04:00:59;5.65;;;3.70;;
20203;SDS011;10261;49.010;12.034;2023-02-28T04:02:09;3.88;;;3.20;;
20203;SDS011;10261;49.010;12.034;2023-02-28T04:03:12;7.55;;;3.33;;
20203;SDS011;10261;49.010;12.034;2023-02-28T04:04:15;4.00;;;3.35;;
20203;SDS011;10261;49.010;12.034;2023-02-28T04:05:18;6.70;;;4.47;;
20203;SDS011;10261;49.010;12.034;2023-02-28T04:06:22;3.80;;;3.50;;
20203;SDS011;10261;49.010;12.034;2023-02-28T04:07:28;5.25;;;3.58;;
20203;SDS011;10261;49.010;12.034;2023-02-28T04:08:30;6.78;;;3.70;;
20203;SDS011;10261;49.010;12.034;2023-02-28T04:09:34;5.28;;;3.80;;
20203;SDS011;10261;49.010;12.034;2023-02-28T04:10:37;4.00;;;3.60;;
20203;SDS011;10261;49.010;12.034;2023-02-28T04:11:40;5.43;;;3.63;;
20203;SDS011;10261;49.010;12.034;2023-02-28T04:12:45;7.30;;;3.30;;
20203;SDS011;10261;49.010;12.034;2023-02-28T04:13:47;5.55;;;4.10;;
20203;SDS011;10261;49.010;12.034;2023-02-28T04:14:50;5.50;;;3.75;;
20203;SDS011;10261;49.010;12.034;2023-02-28T04:15:52;5.25;;;3.65;;
20203;SDS011;10261;49.010;12.034;2023-02-28T04:16:55;5.97;;;4.40;;
20203;SDS011;10261;49.010;12.034;2023-02-28T04:17:58;5.40;;;3.85;;
20203;SDS011;10261;49.010;12.034;2023-02-28T04:19:01;6.05;;;4.07;;
20203;SDS011;10261;49.010;12.034;2023-02-28T04:20:04;6.30;;;4.47;;
20203;SDS011;10261;49.010;12.034;2023-02-28T04:21:10;5.20;;;3.78;;
20203;SDS011;10261;49.010;12.034;2023-02-28T04:22:14;5.10;;;3.15;;
20203;SDS011;10261;49.010;12.034;2023-02-28T04:23:18;10.20;;;3.90;;
20203;SDS011;10261;49.010;12.034;2023-02-28T04:24:20;4.53;;;3.65;;
20203;SDS011;10261;49.010;12.034;2023-02-28T04:25:24;5.75;;;4.22;;
20203;SDS011;10261;49.010;12.034;2023-02-28T04:26:27;7.35;;;4.15;;
20203;SDS011;10261;49.010;12.034;2023-02-28T04:27:32;6.32;;;3.72;;
20203;SDS011;10261;49.010;12.034;2023-02-28T04:28:34;8.30;;;4.05;;
20203;SDS011;10261;49.010;12.034;2023-02-28T04:29:39;8.48;;;3.88;;
20203;SDS011;10261;49.010;12.034;2023-02-28T04:30:41;7.45;;;3.85;;
20203;SDS011;10261;49.010;12.034;2023-02-28T04:31:43;5.80;;;4.10;;
20203;SDS011;10261;49.010;12.034;2023-02-28T04:32:46;4.68;;;4.10;;
20203;SDS011;10261;49.010;12.034;2023-02-28T04:33:49;5.50;;;4.15;;
20203;SDS011;10261;49.010;12.034;2023-02-28T04:34:51;4.22;;;3.55;;
20203;SDS011;10261;49.010;12.034;2023-02-28T04:35:57;6.03;;;4.20;;
20203;SDS011;10261;49.010;12.034;2023-02-28T04:37:01;5.00;;;3.58;;
20203;SDS011;10261;49.010;12.034;2023-02-28T04:38:15;6.65;;;3.65;;
20203;SDS011;10261;49.010;12.034;2023-02-28T04:39:17;4.22;;;3.58;;
20203;SDS011;10261;49.010;12.034;2023-02-28T04:40:20;5.40;;;3.63;;
20203;SDS011;10261;49.010;12.034;2023-02-28T04:41:22;5.53;;;3.75;;
20203;SDS011;10261;49.010;12.034;2023-02-28T04:42:26;5.78;;;4.15;;
20203;SDS011;10261;49.010;12.034;2023-02-28T04:43:28;5.15;;;4.20;;
20203;SDS011;10261;49.010;12.034;2023-02-28T04:44:31;4.68;;;4.10;;
20203;SDS011;10261;49.010;12.034;2023-02-28T04:45:33;4.50;;;3.65;;
20203;SDS011;10261;49.010;12.034;2023-02-28T04:46:37;6.55;;;4.93;;
20203;SDS011;10261;49.010;12.034;2023-02-28T04:47:39;7.32;;;4.40;;
20203;SDS011;10261;49.010;12.034;2023-02-28T04:48:42;4.20;;;3.40;;
20203;SDS011;10261;49.010;12.034;2023-02-28T04:49:45;4.75;;;3.88;;
20203;SDS011;10261;49.010;12.034;2023-02-28T04:50:47;6.75;;;4.63;;
20203;SDS011;10261;49.010;12.034;2023-02-28T04:51:50;5.80;;;3.80;;
20203;SDS011;10261;49.010;12.034;2023-02-28T04:52:54;7.03;;;3.80;;
20203;SDS011;10261;49.010;12.034;2023-02-28T04:53:57;5.85;;;4.05;;
20203;SDS011;10261;49.010;12.034;2023-02-28T04:55:00;6.30;;;4.00;;
20203;SDS011;10261;49.010;12.034;2023-02-28T04:56:03;6.95;;;4.57;;
20203;SDS011;10261;49.010;12.034;2023-02-28T04:57:07;6.22;;;4.65;;
20203;SDS011;10261;49.010;12.034;2023-02-28T04:58:09;4.78;;;4.07;;
20203;SDS011;10261;49.010;12.034;2023-02-28T04:59:12;6.95;;;4.40;;
20203;SDS011;10261;49.010;12.034;2023-02-28T05:00:14;4.28;;;3.88;;
20203;SDS011;10261;49.010;12.034;2023-02-28T05:01:19;5.32;;;3.75;;
20203;SDS011;10261;49.010;12.034;2023-02-28T05:02:24;4.45;;;4.05;;
20203;SDS011;10261;49.010;12.034;2023-02-28T05:03:27;6.65;;;4.38;;
20203;SDS011;10261;49.010;12.034;2023-02-28T05:04:29;9.27;;;4.85;;
20203;SDS011;10261;49.010;12.034;2023-02-28T05:05:35;5.32;;;4.32;;
20203;SDS011;10261;49.010;12.034;2023-02-28T05:06:37;9.07;;;4.68;;
20203;SDS011;10261;49.010;12.034;2023-02-28T05:07:40;5.07;;;4.15;;
20203;SDS011;10261;49.010;12.034;2023-02-28T05:08:42;7.28;;;4.32;;
20203;SDS011;10261;49.010;12.034;2023-02-28T05:09:46;7.95;;;4.00;;
20203;SDS011;10261;49.010;12.034;2023-02-28T05:10:48;8.00;;;3.65;;
20203;SDS011;10261;49.010;12.034;2023-02-28T05:11:51;4.90;;;3.90;;
20203;SDS011;10261;49.010;12.034;2023-02-28T05:12:53;4.63;;;3.83;;
20203;SDS011;10261;49.010;12.034;2023-02-28T05:13:56;5.93;;;4.00;;
20203;SDS011;10261;49.010;12.034;2023-02-28T05:14:58;5.25;;;3.50;;
20203;SDS011;10261;49.010;12.034;2023-02-28T05:16:02;6.25;;;3.75;;
20203;SDS011;10261;49.010;12.034;2023-02-28T05:17:04;5.75;;;4.53;;
20203;SDS011;10261;49.010;12.034;2023-02-28T05:18:07;4.90;;;3.88;;
20203;SDS011;10261;49.010;12.034;2023-02-28T05:19:09;6.03;;;3.88;;
20203;SDS011;10261;49.010;12.034;2023-02-28T05:20:12;7.30;;;4.07;;
20203;SDS011;10261;49.010;12.034;2023-02-28T05:21:24;7.50;;;4.93;;
20203;SDS011;10261;49.010;12.034;2023-02-28T05:22:30;3.80;;;3.40;;
20203;SDS011;10261;49.010;12.034;2023-02-28T05:23:32;7.18;;;4.75;;
20203;SDS011;10261;49.010;12.034;2023-02-28T05:24:35;8.73;;;4.72;;
20203;SDS011;10261;49.010;12.034;2023-02-28T05:25:38;6.70;;;4.80;;
20203;SDS011;10261;49.010;12.034;2023-02-28T05:26:42;6.88;;;4.50;;
20203;SDS011;10261;49.010;12.034;2023-02-28T05:27:44;6.50;;;3.80;;
20203;SDS011;10261;49.010;12.034;2023-02-28T05:28:47;7.35;;;4.57;;
20203;SDS011;10261;49.010;12.034;2023-02-28T05:29:49;6.80;;;4.68;;
20203;SDS011;10261;49.010;12.034;2023-02-28T05:30:52;6.78;;;4.57;;
20203;SDS011;10261;49.010;12.034;2023-02-28T05:31:54;6.40;;;4.40;;
20203;SDS011;10261;49.010;12.034;2023-02-28T05:32:58;6.85;;;4.80;;
20203;SDS011;10261;49.010;12.034;2023-02-28T05:34:00;7.97;;;4.30;;
20203;SDS011;10261;49.010;12.034;2023-02-28T05:35:05;6.85;;;4.97;;
20203;SDS011;10261;49.010;12.034;2023-02-28T05:36:07;7.32;;;4.55;;
20203;SDS011;10261;49.010;12.034;2023-02-28T05:37:11;4.50;;;4.10;;
20203;SDS011;10261;49.010;12.034;2023-02-28T05:38:17;5.40;;;4.40;;
20203;SDS011;10261;49.010;12.034;2023-02-28T05:39:19;5.35;;;4.05;;
20203;SDS011;10261;49.010;12.034;2023-02-28T05:40:23;5.45;;;4.13;;
20203;SDS011;10261;49.010;12.034;2023-02-28T05:41:27;6.60;;;4.53;;
20203;SDS011;10261;49.010;12.034;2023-02-28T05:42:30;7.70;;;4.20;;
20203;SDS011;10261;49.010;12.034;2023-02-28T05:43:32;7.63;;;4.28;;
20203;SDS011;10261;49.010;12.034;2023-02-28T05:44:35;5.32;;;4.10;;
20203;SDS011;10261;49.010;12.034;2023-02-28T05:45:37;10.20;;;5.00;;
20203;SDS011;10261;49.010;12.034;2023-02-28T05:46:40;4.40;;;4.00;;
20203;SDS011;10261;49.010;12.034;2023-02-28T05:47:42;7.93;;;4.50;;
20203;SDS011;10261;49.010;12.034;2023-02-28T05:48:46;7.00;;;4.53;;
20203;SDS011;10261;49.010;12.034;2023-02-28T05:49:49;7.45;;;4.95;;
20203;SDS011;10261;49.010;12.034;2023-02-28T05:50:52;8.32;;;4.80;;
20203;SDS011;10261;49.010;12.034;2023-02-28T05:51:53;8.40;;;4.90;;
20203;SDS011;10261;49.010;12.034;2023-02-28T05:52:56;6.68;;;4.68;;
20203;SDS011;10261;49.010;12.034;2023-02-28T05:53:59;4.70;;;4.05;;
20203;SDS011;10261;49.010;12.034;2023-02-28T05:55:03;7.82;;;4.70;;
20203;SDS011;10261;49.010;12.034;2023-02-28T05:56:05;7.13;;;4.88;;
20203;SDS011;10261;49.010;12.034;2023-02-28T05:57:10;9.20;;;5.47;;
20203;SDS011;10261;49.010;12.034;2023-02-28T05:58:24;7.47;;;4.72;;
20203;SDS011;10261;49.010;12.034;2023-02-28T05:59:32;8.48;;;5.05;;
20203;SDS011;10261;49.010;12.034;2023-02-28T06:00:34;7.97;;;3.97;;
20203;SDS011;10261;49.010;12.034;2023-02-28T06:01:38;6.13;;;4.43;;
20203;SDS011;10261;49.010;12.034;2023-02-28T06:02:41;7.88;;;4.63;;
20203;SDS011;10261;49.010;12.034;2023-02-28T06:03:44;5.28;;;4.35;;
20203;SDS011;10261;49.010;12.034;2023-02-28T06:04:46;7.13;;;4.25;;
20203;SDS011;10261;49.010;12.034;2023-02-28T06:05:49;8.40;;;4.53;;
20203;SDS011;10261;49.010;12.034;2023-02-28T06:06:52;5.85;;;4.35;;
20203;SDS011;10261;49.010;12.034;2023-02-28T06:07:55;9.00;;;5.25;;
20203;SDS011;10261;49.010;12.034;2023-02-28T06:08:57;8.82;;;4.30;;
20203;SDS011;10261;49.010;12.034;2023-02-28T06:10:00;16.02;;;5.15;;
20203;SDS011;10261;49.010;12.034;2023-02-28T06:11:02;5.28;;;4.30;;
20203;SDS011;10261;49.010;12.034;2023-02-28T06:12:06;5.53;;;4.03;;
20203;SDS011;10261;49.010;12.034;2023-02-28T06:13:11;5.47;;;4.13;;
20203;SDS011;10261;49.010;12.034;2023-02-28T06:14:15;6.05;;;4.10;;
20203;SDS011;10261;49.010;12.034;2023-02-28T06:15:19;7.15;;;5.25;;
20203;SDS011;10261;49.010;12.034;2023-02-28T06:16:22;6.03;;;4.20;;
20203;SDS011;10261;49.010;12.034;2023-02-28T06:17:24;5.82;;;4.30;;
20203;SDS011;10261;49.010;12.034;2023-02-28T06:18:27;5.97;;;4.30;;
20203;SDS011;10261;49.010;12.034;2023-02-28T06:19:29;7.65;;;5.35;;
20203;SDS011;10261;49.010;12.034;2023-02-28T06:20:33;7.28;;;4.32;;
20203;SDS011;10261;49.010;12.034;2023-02-28T06:21:35;9.20;;;4.60;;
20203;SDS011;10261;49.010;12.034;2023-02-28T06:22:39;8.65;;;4.60;;
20203;SDS011;10261;49.010;12.034;2023-02-28T06:23:41;10.63;;;5.38;;
20203;SDS011;10261;49.010;12.034;2023-02-28T06:24:45;5.78;;;4.32;;
20203;SDS011;10261;49.010;12.034;2023-02-28T06:25:47;6.18;;;3.83;;
20203;SDS011;10261;49.010;12.034;2023-02-28T06:26:50;6.53;;;4.10;;
20203;SDS011;10261;49.010;12.034;2023-02-28T06:27:53;7.45;;;4.75;;
20203;SDS011;10261;49.010;12.034;2023-02-28T06:28:58;6.15;;;4.03;;
20203;SDS011;10261;49.010;12.034;2023-02-28T06:30:01;6.55;;;4.10;;
20203;SDS011;10261;49.010;12.034;2023-02-28T06:31:06;6.65;;;4.65;;
20203;SDS011;10261;49.010;12.034;2023-02-28T06:32:09;9.65;;;4.63;;